Riverside, Oregon
Current Conditions -  °F | °C
As of 8:53 PM on Sunday 19 Oct 2014 (Local Time) from KBNO Reporting Station
Clear Clear  
Wind Chill: 41°   Ceiling: Unl
Heat Index: 44°   Visibility: 10mi
Dew Point: 24°   Wind: 6mph
Humidity: 45%   Direction: 360°N
Pressure: 29.89"   Gusts: NA
Location:  43.54°N, 118.16°W
Report Text: KBNO 200353Z AUTO 36005KT 10SM CLR 07/M04 A2989 RMK AO2 SLP120 T00671044
Loading
Personal Weather Stations






























Interactive Weather Map
Tropical Storm Tracking
New forecast layout! Learn more

10-Day Weather Forecast

Advertisements
Track Severe Weather on mobile